createdAt,value
2023-03-15T00:01:27.205Z,10.50
2023-03-15T00:06:35.442Z,10.40
2023-03-15T00:11:38.553Z,10.40
2023-03-15T00:16:43.429Z,10.40
2023-03-15T00:21:46.390Z,10.50
2023-03-15T00:26:49.308Z,10.40
2023-03-15T00:31:52.263Z,10.40
2023-03-15T00:36:55.144Z,10.40
2023-03-15T00:41:58.093Z,10.40
2023-03-15T00:47:00.863Z,10.40
2023-03-15T00:52:04.445Z,10.30
2023-03-15T00:57:07.441Z,10.30
2023-03-15T01:02:11.320Z,10.20
2023-03-15T01:07:14.355Z,10.10
2023-03-15T01:12:17.469Z,10.10
2023-03-15T01:17:21.219Z,10.00
2023-03-15T01:22:24.247Z,9.90
2023-03-15T01:27:27.877Z,9.90
2023-03-15T01:32:30.744Z,9.90
2023-03-15T01:37:34.584Z,9.80
2023-03-15T01:43:19.194Z,9.80
2023-03-15T01:48:26.426Z,9.80
2023-03-15T01:53:32.048Z,9.70
2023-03-15T01:58:36.921Z,9.70
2023-03-15T02:03:46.811Z,9.70
2023-03-15T02:09:01.859Z,9.60
2023-03-15T02:14:06.835Z,9.60
2023-03-15T02:19:25.527Z,9.60
2023-03-15T02:25:15.682Z,9.50
2023-03-15T02:30:19.101Z,9.50
2023-03-15T02:35:30.268Z,9.40
2023-03-15T02:40:33.300Z,9.40
2023-03-15T02:45:38.519Z,9.30
2023-03-15T02:50:41.447Z,9.30
2023-03-15T02:55:44.242Z,9.30
2023-03-15T03:00:47.124Z,9.30
2023-03-15T03:05:50.244Z,9.30
2023-03-15T03:10:53.165Z,9.30
2023-03-15T03:15:59.184Z,9.30
2023-03-15T03:21:05.950Z,9.30
2023-03-15T03:26:18.639Z,9.40
2023-03-15T03:31:25.899Z,9.30
2023-03-15T03:36:29.022Z,9.30
2023-03-15T03:41:32.013Z,9.30
2023-03-15T03:46:36.460Z,9.30
2023-03-15T03:51:39.658Z,9.30
2023-03-15T03:56:42.529Z,9.30
2023-03-15T04:01:46.335Z,9.20
2023-03-15T04:06:50.800Z,9.20
2023-03-15T04:11:54.116Z,9.10
2023-03-15T04:16:57.200Z,9.20
2023-03-15T04:22:06.867Z,9.20
2023-03-15T04:27:14.543Z,9.20
2023-03-15T04:32:18.189Z,9.10
2023-03-15T04:37:21.075Z,9.10
2023-03-15T04:42:26.226Z,9.00
2023-03-15T04:47:29.324Z,8.90
2023-03-15T04:52:32.610Z,8.70
2023-03-15T04:57:35.736Z,8.60
2023-03-15T05:02:41.790Z,8.50
2023-03-15T05:07:45.178Z,8.30
2023-03-15T05:12:48.327Z,8.20
2023-03-15T05:17:55.086Z,8.10
2023-03-15T05:22:59.866Z,8.00
2023-03-15T05:28:04.996Z,7.90
2023-03-15T05:33:08.091Z,7.80
2023-03-15T05:38:14.826Z,7.70
2023-03-15T05:43:17.839Z,7.60
2023-03-15T05:48:20.748Z,7.50
2023-03-15T05:53:23.662Z,7.40
2023-03-15T05:58:27.123Z,7.40
2023-03-15T06:03:35.032Z,7.40
2023-03-15T06:08:37.940Z,7.50
2023-03-15T06:13:40.759Z,7.60
2023-03-15T06:18:43.549Z,7.70
2023-03-15T06:23:46.492Z,7.70
2023-03-15T06:28:49.728Z,7.80
2023-03-15T06:33:52.516Z,7.80
2023-03-15T06:38:55.409Z,7.90
2023-03-15T06:43:58.722Z,7.90
2023-03-15T06:49:01.580Z,7.90
2023-03-15T06:54:04.648Z,8.00
2023-03-15T06:59:07.984Z,8.00
2023-03-15T07:04:10.963Z,8.00
2023-03-15T07:09:13.732Z,8.00
2023-03-15T07:14:16.834Z,8.00
2023-03-15T07:19:19.895Z,8.00
2023-03-15T07:24:23.328Z,8.10
2023-03-15T07:29:26.741Z,8.10
2023-03-15T07:34:29.735Z,8.10
2023-03-15T07:39:32.828Z,8.10
2023-03-15T07:44:35.725Z,8.00
2023-03-15T07:49:38.742Z,8.00
2023-03-15T07:54:41.560Z,7.90
2023-03-15T07:59:44.778Z,7.90
2023-03-15T08:04:48.853Z,7.90
2023-03-15T08:09:51.829Z,7.90
2023-03-15T08:14:54.784Z,7.90
2023-03-15T08:19:57.765Z,7.90
2023-03-15T08:25:01.905Z,7.90
2023-03-15T08:30:07.540Z,8.00
2023-03-15T08:35:15.492Z,8.00
2023-03-15T08:40:26.580Z,8.00
2023-03-15T08:45:30.501Z,8.00
2023-03-15T08:50:34.027Z,7.90
2023-03-15T08:55:38.022Z,7.90
2023-03-15T09:00:41.062Z,7.90
2023-03-15T09:05:44.555Z,7.80
2023-03-15T09:10:47.580Z,7.70
2023-03-15T09:15:54.928Z,7.70
2023-03-15T09:20:58.138Z,7.70
2023-03-15T09:26:01.596Z,7.70
2023-03-15T09:31:06.783Z,7.60
2023-03-15T09:36:09.838Z,7.60
2023-03-15T09:41:43.599Z,7.60
2023-03-15T09:47:37.042Z,7.70
2023-03-15T09:53:27.538Z,7.80
2023-03-15T09:58:32.920Z,7.80
2023-03-15T10:03:47.212Z,7.90
2023-03-15T10:08:56.621Z,8.00
2023-03-15T10:14:30.983Z,8.10
2023-03-15T10:19:45.720Z,8.10
2023-03-15T10:24:55.086Z,8.20
2023-03-15T10:30:00.510Z,8.10
2023-03-15T10:35:18.341Z,8.10
2023-03-15T10:40:59.207Z,8.10
2023-03-15T10:46:12.210Z,8.20
2023-03-15T10:51:31.895Z,8.20
2023-03-15T10:56:56.496Z,8.30
2023-03-15T11:02:20.282Z,8.40
2023-03-15T11:07:24.496Z,8.30
2023-03-15T11:12:31.765Z,8.50
2023-03-15T11:17:44.972Z,8.60
2023-03-15T11:22:48.045Z,8.60
2023-03-15T11:27:53.782Z,8.70
2023-03-15T11:33:04.608Z,8.80
2023-03-15T11:38:37.427Z,9.00
2023-03-15T11:44:09.909Z,9.20
2023-03-15T11:49:52.067Z,9.40
2023-03-15T11:55:01.437Z,9.60
2023-03-15T12:00:28.687Z,9.70
2023-03-15T12:05:53.171Z,9.70
2023-03-15T12:10:56.461Z,9.70
2023-03-15T12:15:59.407Z,9.80
2023-03-15T12:21:12.589Z,9.90
2023-03-15T12:26:49.438Z,9.90
2023-03-15T12:32:13.704Z,9.90
2023-03-15T12:37:38.206Z,9.90
2023-03-15T12:42:41.035Z,10.00
2023-03-15T12:47:50.335Z,10.20
2023-03-15T12:52:54.046Z,10.30
2023-03-15T12:57:59.437Z,10.40
2023-03-15T13:03:19.219Z,10.60
2023-03-15T13:08:24.443Z,10.70
2023-03-15T13:13:54.518Z,10.70
2023-03-15T13:19:19.321Z,10.80
2023-03-15T13:24:57.881Z,10.60
2023-03-15T13:30:48.352Z,10.50
2023-03-15T13:36:15.291Z,10.40
2023-03-15T13:41:31.269Z,10.30
2023-03-15T13:46:34.639Z,10.20
2023-03-15T13:51:39.582Z,10.00
2023-03-15T13:57:22.761Z,9.90
2023-03-15T14:02:48.093Z,9.70
2023-03-15T14:08:07.141Z,9.60
2023-03-15T14:13:33.613Z,9.50
2023-03-15T14:18:39.444Z,9.40
2023-03-15T14:23:49.216Z,9.30
2023-03-15T14:29:29.883Z,9.30
2023-03-15T14:34:44.249Z,9.30
2023-03-15T14:39:47.169Z,9.10
2023-03-15T14:44:51.666Z,8.90
2023-03-15T14:49:55.173Z,8.80
2023-03-15T14:54:59.006Z,8.70
2023-03-15T15:00:04.144Z,8.60
2023-03-15T15:05:30.246Z,8.50
2023-03-15T15:10:34.887Z,8.50
2023-03-15T15:15:54.668Z,8.50
2023-03-15T15:21:03.020Z,8.50
2023-03-15T15:26:26.648Z,8.40
2023-03-15T15:31:34.354Z,8.30
2023-03-15T15:36:43.985Z,8.30
2023-03-15T15:41:47.338Z,8.30
2023-03-15T15:46:50.688Z,8.30
2023-03-15T15:51:53.663Z,8.30
2023-03-15T15:56:59.139Z,8.20
2023-03-15T16:02:02.850Z,8.20
2023-03-15T16:07:07.743Z,8.10
2023-03-15T16:12:14.240Z,8.10
2023-03-15T16:17:23.298Z,8.00
2023-03-15T16:22:27.332Z,7.90
2023-03-15T16:27:30.740Z,7.90
2023-03-15T16:32:43.850Z,7.70
2023-03-15T16:37:48.140Z,7.70
2023-03-15T16:42:51.533Z,7.60
2023-03-15T16:48:00.118Z,7.50
2023-03-15T16:53:07.938Z,7.50
2023-03-15T16:58:20.722Z,7.30
2023-03-15T17:03:28.558Z,7.20
2023-03-15T17:08:32.887Z,7.10
2023-03-15T17:13:40.937Z,7.00
2023-03-15T17:18:44.561Z,6.90
2023-03-15T17:23:50.952Z,6.80
2023-03-15T17:28:54.438Z,6.70
2023-03-15T17:33:58.765Z,6.70
2023-03-15T17:39:06.386Z,6.60
2023-03-15T17:44:10.905Z,6.50
2023-03-15T17:49:15.930Z,6.40
2023-03-15T17:54:22.046Z,6.30
2023-03-15T17:59:27.339Z,6.30
2023-03-15T18:04:31.276Z,6.20
2023-03-15T18:09:34.361Z,6.20
2023-03-15T18:14:38.273Z,6.20
2023-03-15T18:19:41.394Z,6.20
2023-03-15T18:24:46.933Z,6.20
2023-03-15T18:29:52.896Z,6.20
2023-03-15T18:34:56.523Z,6.20
2023-03-15T18:39:59.476Z,6.20
2023-03-15T18:45:02.313Z,6.30
2023-03-15T18:50:10.634Z,6.30
2023-03-15T18:55:16.968Z,6.20
2023-03-15T19:00:32.724Z,6.20
2023-03-15T19:05:38.201Z,6.20
2023-03-15T19:10:47.523Z,6.20
2023-03-15T19:15:52.767Z,6.10
2023-03-15T19:20:56.559Z,6.10
2023-03-15T19:25:59.544Z,6.00
2023-03-15T19:31:03.710Z,5.90
2023-03-15T19:36:08.671Z,5.80
2023-03-15T19:41:13.122Z,5.80
2023-03-15T19:46:17.443Z,5.70
2023-03-15T19:51:23.393Z,5.70
2023-03-15T19:56:26.405Z,5.60
2023-03-15T20:01:29.718Z,5.60
2023-03-15T20:06:32.962Z,5.50
2023-03-15T20:11:35.976Z,5.50
2023-03-15T20:16:39.024Z,5.40
2023-03-15T20:21:43.931Z,5.40
2023-03-15T20:26:46.974Z,5.40
2023-03-15T20:31:50.961Z,5.40
2023-03-15T20:36:54.198Z,5.40
2023-03-15T20:41:57.174Z,5.50
2023-03-15T20:47:00.377Z,5.50
2023-03-15T20:52:05.259Z,5.50
2023-03-15T20:57:08.458Z,5.60
2023-03-15T21:02:11.703Z,5.60
2023-03-15T21:07:14.894Z,5.60
2023-03-15T21:12:19.398Z,5.60
2023-03-15T21:17:22.351Z,5.60
2023-03-15T21:22:25.403Z,5.60
2023-03-15T21:27:28.668Z,5.60
2023-03-15T21:32:31.428Z,5.60
2023-03-15T21:37:35.123Z,5.60
2023-03-15T21:42:38.418Z,5.50
2023-03-15T21:47:41.746Z,5.50
2023-03-15T21:52:45.233Z,5.50
2023-03-15T21:57:48.303Z,5.50
2023-03-15T22:02:55.590Z,5.50
2023-03-15T22:07:58.883Z,5.50
2023-03-15T22:13:01.887Z,5.60
2023-03-15T22:18:05.015Z,5.70
2023-03-15T22:23:08.417Z,5.70
2023-03-15T22:28:11.639Z,5.60
2023-03-15T22:33:15.733Z,5.60
2023-03-15T22:38:18.791Z,5.60
2023-03-15T22:43:21.660Z,5.60
2023-03-15T22:48:24.869Z,5.60
2023-03-15T22:53:29.161Z,5.60
2023-03-15T22:58:32.479Z,5.60
2023-03-15T23:03:35.449Z,5.60
2023-03-15T23:08:38.440Z,5.60
2023-03-15T23:13:42.357Z,5.60
2023-03-15T23:18:45.759Z,5.50
2023-03-15T23:23:48.621Z,5.50
2023-03-15T23:28:53.368Z,5.40
2023-03-15T23:33:56.305Z,5.40
2023-03-15T23:39:00.482Z,5.30
2023-03-15T23:44:03.669Z,5.20
2023-03-15T23:49:07.655Z,5.10
2023-03-15T23:54:11.380Z,5.00
2023-03-15T23:59:14.476Z,4.90
